• Join FlightAware (Why Join?)
  • Login
  • US Flag 
08:21AM EST


 

Airport Tracker/Info


-or-


 

Live Flight TrackerFlight Track Log ✈ N53NW ✈ 14-Feb-2014 ✈ KHPN - KFSD

Flight Track Log - Related Links

Times and Time Zones

All times are in EST time to prevent confusion due to time zone crossing. See the N53NW flight status page for this flight to view local times or setup timezone preferences in your user account.

Time Position Orientation Groundspeed Altitude Reporting Facility
EST Latitude Longitude Course Direction KTS MPH feet Rate Location/Type
03:03PM 41.0833 -73.7333 288° West 177 204 2,100  Level New York TRACON
03:04PM 41.1000 -73.8000 288° West 191 220 6,000 2,220 Climbing New York TRACON
03:06PM 41.1717 -73.9161 309° West 204 235 9,100 1,380 Climbing New York Center
03:07PM 41.2117 -73.9786 310° West 217 250 10,300 1,740 Climbing New York Center
03:08PM 41.2517 -74.0414 310° West 217 250 12,700 2,820 Climbing New York Center
03:09PM 41.2517 -74.1214 270° West 204 235 16,000 1,680 Climbing New York Center
03:10PM 41.2914 -74.1867 309° West 210 242 16,100  Climbing New York Center
03:11PM 41.3314 -74.2442 313° West 232 267 16,100  Level New York Center
03:12PM 41.3772 -74.3128 312° West 237 273 16,100 60 Level New York Center
03:13PM 41.4128 -74.3756 307° West 237 273 16,300 2,160 Climbing New York Center
03:14PM 41.4481 -74.4494 303° West 231 266 20,500 3,780 Climbing New York Center
03:15PM 41.4789 -74.5203 300° West 231 266 23,900 3,180 Climbing New York Center
03:16PM 41.5119 -74.5997 299° West 231 266 27,000 2,580 Climbing New York Center
03:17PM 41.5447 -74.6764 300° West 231 266 29,100 2,100 Climbing New York Center
03:18PM 41.5775 -74.7558 299° West 237 273 31,200 1,800 Climbing New York Center
03:19PM 41.6164 -74.8386 302° West 248 285 32,800 1,500 Climbing New York Center
03:20PM 41.6528 -74.9269 299° West 265 305 34,200 1,320 Climbing New York Center
03:21PM 41.6933 -75.0211 300° West 277 319 35,500 1,200 Climbing New York Center
03:22PM 41.7317 -75.1125 299° West 277 319 36,600 1,080 Climbing New York Center
03:23PM 41.7739 -75.2097 300° West 288 331 37,700 900 Climbing New York Center
03:24PM 41.8139 -75.3072 299° West 294 338 38,500 660 Climbing New York Center
03:25PM 41.8558 -75.4047 300° West 299 344 39,100 600 Climbing New York Center
03:26PM 41.8975 -75.5078 299° West 304 350 39,800 600 Climbing New York Center
03:27PM 41.9394 -75.6083 299° West 304 350 40,400 600 Climbing New York Center
03:28PM 41.9811 -75.7092 299° West 304 350 41,000 540 Climbing New York Center
03:29PM 42.0244 -75.8128 299° West 309 356 41,500 420 Climbing New York Center
03:31PM 42.0867 -75.9644 299° West 319 367 42,200 480 Climbing Cleveland Center
03:32PM 42.1167 -76.0333 300° West 310 357 42,700 360 Climbing Toronto Center
03:33PM 42.1667 -76.1500 300° West 310 357 43,000 120 Climbing Toronto Center
03:34PM 42.2106 -76.3006 292° West 314 361 43,000  Level Cleveland Center
03:35PM 42.2447 -76.4089 293° West 321 369 43,000  Level Cleveland Center
03:36PM 42.2811 -76.5236 293° West 332 382 43,000  Level Cleveland Center
03:37PM 42.3183 -76.6411 293° West 340 391 43,000  Level Cleveland Center
03:38PM 42.3636 -76.7844 293° West 345 397 43,000  Level Cleveland Center
03:39PM 42.4008 -76.9028 293° West 345 397 43,000  Level Cleveland Center
03:41PM 42.4500 -77.0833 290° West 350 403 43,000  Level Toronto Center
03:42PM 42.4833 -77.2000 291° West 350 403 43,000  Level Toronto Center
03:43PM 42.5167 -77.3333 289° West 350 403 43,000  Level Toronto Center
03:43PM 42.5511 -77.3856 312° West 351 404 43,000  Level Cleveland Center
03:44PM 42.5906 -77.5119 293° West 351 404 43,000  Level Cleveland Center
03:45PM 42.6325 -77.6556 292° West 344 396 43,000  Level Cleveland Center
03:46PM 42.6697 -77.7761 293° West 345 397 43,000  Level Cleveland Center
03:47PM 42.7103 -77.9078 293° West 357 411 43,000  Level Cleveland Center
03:48PM 42.7483 -78.0308 293° West 354 407 43,000  Level Cleveland Center
03:49PM 42.7864 -78.1544 293° West 355 409 43,000  Level Cleveland Center
03:50PM 42.8219 -78.2811 291° West 358 412 43,000  Level Cleveland Center
03:51PM 42.8581 -78.4056 292° West 356 410 43,000  Level Cleveland Center
03:52PM 42.9028 -78.5564 292° West 358 412 43,000  Level Cleveland Center
03:53PM 42.9314 -78.6858 287° West 360 414 43,000  Level Cleveland Center
03:54PM 42.9378 -78.8181 274° West 351 404 43,000  Level Cleveland Center
03:55PM 42.9450 -78.9514 274° West 354 407 43,000  Level Cleveland Center
03:56PM 42.9514 -79.0856 274° West 356 410 43,000  Level Cleveland Center
03:57PM 42.9531 -79.1117 275° West 356 410 43,000  Level Cleveland Center
03:58PM 42.9500 -79.2167 268° West 350 403 43,000  Level Toronto Center
03:59PM 42.9500 -79.3667 270° West 360 414 43,000  Level Toronto Center
04:00PM 42.9667 -79.5000 280° West 360 414 43,000  Level Toronto Center
04:01PM 42.9667 -79.6333 270° West 360 414 43,000  Level Toronto Center
04:02PM 42.9833 -79.7667 280° West 360 414 43,000  Level Toronto Center
04:03PM 42.9833 -79.9000 270° West 360 414 43,000  Level Toronto Center
04:04PM 42.9833 -80.0500 270° West 360 414 43,000  Level Toronto Center
04:05PM 43.0000 -80.1833 280° West 360 414 43,000  Level Toronto Center
04:06PM 43.0000 -80.3167 270° West 360 414 43,000  Level Toronto Center
04:07PM 43.0000 -80.4500 270° West 360 414 43,000  Level Toronto Center
04:08PM 43.0167 -80.5833 280° West 360 414 43,000  Level Toronto Center
04:09PM 43.0167 -80.7333 270° West 360 414 43,000  Level Toronto Center
04:10PM 43.0000 -80.8333 257° West 350 403 43,000  Level Toronto Center
04:11PM 43.0167 -80.9833 279° West 350 403 43,000  Level Toronto Center
04:12PM 43.0167 -81.1167 270° West 350 403 43,000  Level Toronto Center
04:13PM 43.0333 -81.2500 280° West 350 403 43,000  Level Toronto Center
04:14PM 43.0667 -81.3833 289° West 350 403 43,000  Level Toronto Center
04:15PM 43.0833 -81.5333 279° West 350 403 43,000  Level Toronto Center
04:16PM 43.1000 -81.6500 281° West 350 403 43,000  Level Toronto Center
04:17PM 43.1167 -81.7833 280° West 350 403 43,000  Level Toronto Center
04:18PM 43.1333 -81.9167 280° West 350 403 43,000  Level Toronto Center
04:19PM 43.1500 -82.0333 281° West 350 403 43,000  Level Toronto Center
04:20PM 43.1667 -82.2000 278° West 350 403 43,000  Level Toronto Center
04:21PM 43.1833 -82.3000 283° West 360 414 43,000  Level Toronto Center
04:22PM 43.2167 -82.4500 287° West 360 414 43,000  Level Toronto Center
04:23PM 43.2333 -82.5833 280° West 360 414 43,000  Level Toronto Center
04:24PM 43.2553 -82.7258 282° West 357 411 43,000  Level Cleveland Center
04:25PM 43.2547 -82.8617 270° West 358 412 43,000  Level Cleveland Center
04:26PM 43.2553 -82.9972 270° West 357 411 43,000  Level Cleveland Center
04:27PM 43.2550 -83.1322 270° West 356 410 43,000  Level Cleveland Center
04:28PM 43.2542 -83.2947 270° West 357 411 43,000  Level Cleveland Center
04:29PM 43.2542 -83.4308 270° West 358 412 43,000  Level Cleveland Center
04:30PM 43.2525 -83.5642 269° West 353 406 43,000  Level Cleveland Center
04:31PM 43.2514 -83.6997 269° West 356 410 43,000  Level Cleveland Center
04:32PM 43.2492 -83.8342 269° West 356 410 43,000  Level Cleveland Center
04:33PM 43.2472 -83.9947 269° West 354 407 43,000  Level Cleveland Center
04:34PM 43.2461 -84.1189 269° West 355 409 43,000  Level Cleveland Center
04:35PM 43.2442 -84.2517 269° West 351 404 43,000  Level Cleveland Center
04:36PM 43.2417 -84.3825 269° West 347 399 43,000  Level Chicago Center
04:37PM 43.2400 -84.5394 269° West 345 397 43,000  Level Chicago Center
04:38PM 43.2369 -84.6683 268° West 342 394 43,000  Level Chicago Center
04:39PM 43.2353 -84.7975 269° West 339 390 43,000  Level Chicago Center
04:40PM 43.2319 -84.9258 268° West 338 389 43,000  Level Chicago Center
04:41PM 43.2300 -85.0542 269° West 340 391 43,000  Level Chicago Center
04:42PM 43.2278 -85.1822 269° West 338 389 43,000  Level Chicago Center
04:43PM 43.2242 -85.3367 268° West 339 390 43,000  Level Chicago Center
04:44PM 43.2208 -85.4669 268° West 342 394 43,000  Level Chicago Center
04:45PM 43.2178 -85.5969 268° West 344 396 43,000  Level Chicago Center
04:46PM 43.2150 -85.7267 268° West 343 395 43,000  Level Chicago Center
04:47PM 43.2106 -85.8575 267° West 347 399 43,000  Level Chicago Center
04:48PM 43.2067 -86.0117 268° West 344 396 43,000  Level Chicago Center
04:49PM 43.2019 -86.1406 267° West 346 398 43,000  Level Chicago Center
04:50PM 43.1989 -86.2728 268° West 350 403 43,000  Level Chicago Center
04:51PM 43.1942 -86.4067 267° West 355 409 43,000  Level Chicago Center
04:53PM 43.1892 -86.5689 268° West 356 410 43,000  Level Chicago Center
04:54PM 43.1844 -86.7056 267° West 361 415 43,000  Level Chicago Center
04:55PM 43.1794 -86.8428 267° West 361 415 43,000  Level Chicago Center
04:56PM 43.1742 -86.9797 267° West 363 418 43,000  Level Chicago Center
04:57PM 43.1686 -87.1183 267° West 365 420 43,000  Level Chicago Center
04:58PM 43.1633 -87.2564 267° West 364 419 43,000  Level Chicago Center
04:59PM 43.1572 -87.4108 267° West 364 419 43,000  Level Chicago Center
05:00PM 43.1511 -87.5486 267° West 362 417 43,000  Level Chicago Center
05:01PM 43.1439 -87.6869 266° West 364 419 43,000  Level Chicago Center
05:02PM 43.1372 -87.8525 267° West 363 418 43,000  Level Chicago Center
05:03PM 43.1317 -87.9917 267° West 365 420 43,000  Level Chicago Center
05:04PM 43.1236 -88.1336 266° West 372 428 43,000  Level Chicago Center
05:05PM 43.1172 -88.2728 266° West 367 422 43,000  Level Chicago Center
05:06PM 43.1183 -88.4119 271° West 365 420 43,000  Level Chicago Center
05:07PM 43.1214 -88.5536 272° West 368 423 43,000  Level Chicago Center
05:08PM 43.1233 -88.6944 271° West 369 425 43,000  Level Chicago Center
05:09PM 43.1250 -88.8639 271° West 370 426 43,000  Level Chicago Center
05:10PM 43.1269 -89.0047 271° West 369 425 43,000  Level Chicago Center
05:11PM 43.1294 -89.1464 271° West 371 427 43,000  Level Chicago Center
05:12PM 43.1303 -89.2881 271° West 373 429 43,000  Level Chicago Center
05:13PM 43.1317 -89.4297 271° West 373 429 43,000  Level Chicago Center
05:14PM 43.1314 -89.5717 270° West 373 429 43,000  Level Chicago Center
05:15PM 43.1325 -89.7411 271° West 372 428 43,000  Level Chicago Center
05:16PM 43.1328 -89.8828 270° West 373 429 43,000  Level Chicago Center
05:17PM 43.1333 -90.0231 270° West 369 425 43,000  Level Chicago Center
05:18PM 43.1331 -90.1650 270° West 369 425 43,000  Level Chicago Center
05:19PM 43.1325 -90.3161 270° West 369 425 43,000  Level Chicago Center
05:20PM 43.1328 -90.4561 270° West 370 426 43,000  Level Chicago Center
05:22PM 43.1328 -90.5953 270° West 370 426 43,000  Level Chicago Center
05:23PM 43.1328 -90.7342 270° West 368 423 43,000  Level Chicago Center
05:24PM 43.1317 -90.9017 270° West 369 425 43,000  Level Chicago Center
05:25PM 43.1319 -91.0403 270° West 369 425 43,000  Level Chicago Center
05:26PM 43.1311 -91.1819 270° West 372 428 43,000  Level Chicago Center
05:27PM 43.1294 -91.3211 269° West 370 426 43,000  Level Chicago Center
05:28PM 43.1283 -91.4608 269° West 370 426 43,000  Level Chicago Center
05:29PM 43.1258 -91.6261 269° West 369 425 43,000  Level Chicago Center
05:30PM 43.1239 -91.7600 269° West 363 418 43,000  Level Chicago Center
05:31PM 43.1225 -91.8917 269° West 354 407 43,000  Level Chicago Center
05:32PM 43.1200 -92.0236 269° West 352 405 43,000  Level Chicago Center
05:33PM 43.1181 -92.1819 269° West 352 405 43,000  Level Chicago Center
05:34PM 43.1156 -92.3167 269° West 356 410 43,000  Level Chicago Center
05:35PM 43.1136 -92.4506 269° West 356 410 43,000  Level Chicago Center
05:36PM 43.1103 -92.5842 268° West 355 409 43,000  Level Chicago Center
05:37PM 43.1086 -92.7186 269° West 357 411 43,000  Level Chicago Center
05:38PM 43.1053 -92.8836 268° West 364 419 43,000  Level Chicago Center
05:39PM 43.1011 -93.0186 268° West 361 415 43,000  Level Chicago Center
05:40PM 43.0981 -93.1531 268° West 357 411 43,000  Level Chicago Center
05:41PM 43.0947 -93.2906 268° West 362 417 43,000  Level Chicago Center
05:43PM 43.1183 -93.4714 280° West 350 403 43,000  Level Minneapolis Center
05:44PM 43.1425 -93.6011 284° West 350 403 43,000  Level Minneapolis Center
05:45PM 43.1642 -93.7294 283° West 349 402 43,000  Level Minneapolis Center
05:46PM 43.1908 -93.8856 283° West 352 405 43,000  Level Minneapolis Center
05:47PM 43.2142 -94.0142 284° West 350 403 43,000 -720 Level Minneapolis Center
05:48PM 43.2361 -94.1458 283° West 355 409 41,600 -2,160 Descending Minneapolis Center
05:49PM 43.2578 -94.2764 283° West 345 397 38,600 -2,880 Descending Minneapolis Center
05:50PM 43.2783 -94.4003 283° West 336 387 35,800 -2,640 Descending Minneapolis Center
05:51PM 43.2967 -94.5144 282° West 312 359 33,300 -2,160 Descending Minneapolis Center
05:52PM 43.3200 -94.6444 284° West 295 339 31,400 -1,740 Descending Minneapolis Center
05:53PM 43.3364 -94.7511 282° West 287 330 29,800 -1,560 Descending Minneapolis Center
05:54PM 43.3536 -94.8547 283° West 281 323 28,200 -1,560 Descending Minneapolis Center
05:55PM 43.3719 -94.9597 284° West 283 326 26,600 -1,560 Descending Minneapolis Center
05:56PM 43.3897 -95.0681 283° West 289 333 25,000 -1,560 Descending Minneapolis Center
05:57PM 43.4072 -95.1753 283° West 289 333 23,400 -1,680 Descending Minneapolis Center
05:58PM 43.4272 -95.3031 282° West 286 329 21,600 -1,620 Descending Minneapolis Center
05:59PM 43.4433 -95.4050 282° West 277 319 20,100 -1,500 Descending Minneapolis Center
06:00PM 43.4592 -95.5053 282° West 270 311 18,600 -1,440 Descending Minneapolis Center
06:01PM 43.4750 -95.6067 282° West 270 311 17,200 -1,440 Descending Minneapolis Center
06:02PM 43.4897 -95.7011 282° West 258 297 15,700 -1,500 Descending Minneapolis Center
06:03PM 43.5028 -95.7903 281° West 244 281 14,200 -1,320 Descending Minneapolis Center
06:04PM 43.5164 -95.8808 282° West 241 277 13,000 -1,320 Descending Minneapolis Center
06:05PM 43.5267 -95.9903 277° West 240 276 11,500 -1,320 Descending Minneapolis Center
06:06PM 43.5353 -96.0811 277° West 239 275 10,300 -1,200 Descending Minneapolis Center
06:07PM 43.5442 -96.1747 277° West 241 277 9,100 -1,440 Descending Minneapolis Center
06:08PM 43.5531 -96.2636 278° West 240 276 7,400 -1,620 Descending Minneapolis Center
06:09PM 43.5581 -96.3542 274° West 238 274 5,800 -1,440 Descending Minneapolis Center
06:10PM 43.5506 -96.4483 264° West 242 278 4,500 -960 Descending Minneapolis Center
06:11PM 43.5447 -96.5372 265° West 240 276 3,900 -660 Descending Minneapolis Center
06:13PM 43.5447 -96.6294 270° West 221 254 3,200 -540 Descending Minneapolis Center
06:14PM 43.5433 -96.6867 268° West 184 212 2,800 -720 Descending Minneapolis Center
06:15PM 43.5583 -96.7225 300° West 148 170 1,800 -1,020 Descending Minneapolis Center
06:17PM 43.5667 -96.7333 180° South  Level FlightAware Approximate
06:24PM 43.5820 -96.7419 180° South  Level Estimated